Christian Reinauer — WDA6472 — position and weather

sailwx.info

Track history (hours):
 
Tides and Currents Weather Stations Pressure Air Temp Water Temp Dewpoint Dewpoint Depression Visibility Wind Speed Wind Dir Waves Ship Positions

Christian Reinauer

Owner: REINAUER TRANSPORTATION CO LLC, STATEN ISLAND, NY. More information available from US FCC via Universal Licensing System and Coast Guard Vessel Documentation Center.

Last reported at 2017-Mar-28 01:33 UTC. Time now 2017-Mar-28 02:17 UTC.
Position N 41°04' W 072°44'.

Length 170 m; draft 7.4 m.

Type: Tanker. MMSI: 366832740.

Date/timePositionNaut miles runAvg speedWind from/ knotsBaromVisibWave heightAir tempDewpointWater temp
2017-Mar-28 01:33N 41°04' W 072°44'5510.8
2017-Mar-27 20:31N 40°48' W 073°54'6 6.6
2017-Mar-27 19:33N 40°43' W 073°58'7 7.1
2017-Mar-27 18:34N 40°39' W 074°06'1 1.0
2017-Mar-27 17:33N 40°39' W 074°07'0 0.0
2017-Mar-27 16:33N 40°39' W 074°07'1 0.6
2017-Mar-27 15:33N 40°38' W 074°08'0 0.0
2017-Mar-27 14:33N 40°38' W 074°08'0 0.0
2017-Mar-27 13:33N 40°38' W 074°08'0 0.0
2017-Mar-27 12:33N 40°38' W 074°08'1 0.6
2017-Mar-27 11:33N 40°39' W 074°07'0 0.0
2017-Mar-27 10:33N 40°39' W 074°07'0 0.0
2017-Mar-27 09:33N 40°39' W 074°07'0 0.0
2017-Mar-27 08:33N 40°39' W 074°07'0 0.0
2017-Mar-27 07:33N 40°39' W 074°07'0 0.0
2017-Mar-27 06:33N 40°39' W 074°07'0 0.0
2017-Mar-27 05:33N 40°39' W 074°07'0 0.0
2017-Mar-27 04:33N 40°39' W 074°07'0 0.0
2017-Mar-27 03:33N 40°39' W 074°07'0 0.0
2017-Mar-27 02:33N 40°39' W 074°07'0 0.0
2017-Mar-27 01:33N 40°39' W 074°07'1 0.6
2017-Mar-27 00:33N 40°38' W 074°08'1 0.6
2017-Mar-26 23:33N 40°39' W 074°07'5 4.6
2017-Mar-26 22:33N 40°36' W 074°12'4 4.2
2017-Mar-26 21:32N 40°33' W 074°15'0 0.0
2017-Mar-26 20:33N 40°33' W 074°15'0 0.0
2017-Mar-26 19:33N 40°33' W 074°15'0 0.0
2017-Mar-26 18:30N 40°33' W 074°15'0 0.0
2017-Mar-26 17:33N 40°33' W 074°15'0 0.0
2017-Mar-26 16:33N 40°33' W 074°15'0 0.0
2017-Mar-26 15:33N 40°33' W 074°15'0 0.0
2017-Mar-26 14:33N 40°33' W 074°15'0 0.0
2017-Mar-26 13:32N 40°33' W 074°15'0 0.0
2017-Mar-26 02:12N 40°33' W 074°15'5 4.1
2017-Mar-26 01:06N 40°30' W 074°10'610.3
2017-Mar-26 00:33N 40°29' W 074°03'1010.5
2017-Mar-25 23:33N 40°40' W 074°03'0 0.1
2017-Mar-25 22:32N 40°40' W 074°03'0 0.2
2017-Mar-25 21:32N 40°40' W 074°03'0 0.1
2017-Mar-25 20:32N 40°40' W 074°03'0 0.0
2017-Mar-25 19:32N 40°40' W 074°03'0 0.0
2017-Mar-25 18:32N 40°40' W 074°03'0 0.0
2017-Mar-25 17:32N 40°40' W 074°03'0 0.0
2017-Mar-25 16:32N 40°40' W 074°03'0 0.0
2017-Mar-25 15:32N 40°40' W 074°03'0 0.0
2017-Mar-25 14:32N 40°40' W 074°03'0 0.1
2017-Mar-25 13:32N 40°40' W 074°03'0 0.1
2017-Mar-25 12:32N 40°40' W 074°03'0 0.0
2017-Mar-25 11:32N 40°40' W 074°03'0 0.0
2017-Mar-25 10:32N 40°40' W 074°03'0 0.1
2017-Mar-25 09:32N 40°40' W 074°03'0 0.1
2017-Mar-25 08:32N 40°40' W 074°03'0 0.1
2017-Mar-25 07:32N 40°40' W 074°03'0 0.0
2017-Mar-25 06:32N 40°40' W 074°03'0 0.0
2017-Mar-25 05:32N 40°40' W 074°03'0 0.0
2017-Mar-25 04:32N 40°40' W 074°03'0 0.0
2017-Mar-25 03:32N 40°40' W 074°03'0 0.0
2017-Mar-25 02:32N 40°40' W 074°03'0 0.0
2017-Mar-25 01:32N 40°40' W 074°03'0 0.2
2017-Mar-25 00:32N 40°40' W 074°03'0 0.0
2017-Mar-24 23:31N 40°40' W 074°03'0 0.0
2017-Mar-24 22:31N 40°40' W 074°03'4 4.1
2017-Mar-24 21:32N 40°38' W 074°08'0 0.0
2017-Mar-24 20:32N 40°38' W 074°08'0 0.0
2017-Mar-24 19:32N 40°38' W 074°08'0 0.0
2017-Mar-24 18:29N 40°38' W 074°08'0 0.0
2017-Mar-24 17:33N 40°38' W 074°08'0 0.0
2017-Mar-24 16:33N 40°38' W 074°08'0 0.0
2017-Mar-24 15:33N 40°38' W 074°08'0 0.0
2017-Mar-24 14:33N 40°38' W 074°08'4 3.9
2017-Mar-24 13:33N 40°40' W 074°03'2 1.6
2017-Mar-24 12:33N 40°38' W 074°03'5 5.1
2017-Mar-24 11:33N 40°42' W 073°59'8 8.3
2017-Mar-24 10:33N 40°48' W 073°51'1010.0
2017-Mar-24 09:33N 40°54' W 073°41'4611.5
2017-Mar-24 05:33N 41°07' W 072°42'1110.6
2017-Mar-24 04:33N 41°09' W 072°28'10 9.8
2017-Mar-24 03:33N 41°12' W 072°16'1010.1
2017-Mar-24 02:33N 41°14' W 072°03'4110.2
2017-Mar-23 22:33N 41°37' W 071°18'1110.9
2017-Mar-23 21:32N 41°48' W 071°23'1 0.5
2017-Mar-23 20:33N 41°48' W 071°24'0 0.0
2017-Mar-23 03:19N 41°48' W 071°24'0 0.6
2017-Mar-23 02:30N 41°48' W 071°23'6 6.6
2017-Mar-23 01:33N 41°42' W 071°20'138 9.8
2017-Mar-22 11:33N 40°29' W 073°55'1110.6
2017-Mar-22 10:33N 40°37' W 074°03'3 3.2
2017-Mar-22 09:33N 40°39' W 074°07'0 0.0
2017-Mar-22 08:31N 40°39' W 074°07'0 0.0
2017-Mar-22 07:31N 40°39' W 074°07'0 0.0
2017-Mar-22 06:31N 40°39' W 074°07'0 0.0
2017-Mar-22 05:31N 40°39' W 074°07'0 0.0
2017-Mar-22 04:31N 40°39' W 074°07'0 0.0
2017-Mar-22 03:31N 40°39' W 074°07'0 0.0
2017-Mar-22 02:28N 40°39' W 074°07'0 0.0
2017-Mar-22 01:31N 40°39' W 074°07'0 0.0
2017-Mar-22 00:31N 40°39' W 074°07'0 0.0
2017-Mar-21 23:28N 40°39' W 074°07'0 0.0
2017-Mar-21 22:31N 40°39' W 074°07'0 0.0
2017-Mar-21 21:34N 40°39' W 074°07'0 0.0
2017-Mar-21 20:34N 40°39' W 074°07'0 0.0
2017-Mar-21 19:33N 40°39' W 074°07'0 0.0
2017-Mar-21 18:33N 40°39' W 074°07'0 0.0
2017-Mar-21 17:33N 40°39' W 074°07'0 0.0
2017-Mar-21 16:33N 40°39' W 074°07'0 0.0
2017-Mar-21 15:33N 40°39' W 074°07'1 0.6
2017-Mar-21 14:33N 40°38' W 074°08'0 0.0
2017-Mar-21 13:33N 40°38' W 074°08'0 0.0
2017-Mar-21 12:33N 40°38' W 074°08'1 0.6
2017-Mar-21 11:31N 40°39' W 074°07'0 0.0
2017-Mar-21 10:31N 40°39' W 074°07'0 0.0
2017-Mar-21 09:31N 40°39' W 074°07'0 0.0
2017-Mar-21 08:31N 40°39' W 074°07'0 0.0
2017-Mar-21 07:31N 40°39' W 074°07'0 0.0
2017-Mar-21 06:31N 40°39' W 074°07'0 0.0
2017-Mar-21 05:31N 40°39' W 074°07'0 0.0
2017-Mar-21 04:31N 40°39' W 074°07'0 0.0
2017-Mar-21 03:31N 40°39' W 074°07'0 0.0
2017-Mar-21 02:31N 40°39' W 074°07'0 0.0
2017-Mar-21 01:32N 40°39' W 074°07'0 0.1
2017-Mar-21 00:33N 40°39' W 074°07'0 0.1
2017-Mar-20 23:32N 40°39' W 074°07'1 0.6
2017-Mar-20 22:33N 40°39' W 074°06'3 2.8
2017-Mar-20 21:32N 40°39' W 074°03'0 0.2
2017-Mar-20 20:32N 40°40' W 074°03'0 0.1
2017-Mar-20 19:32N 40°40' W 074°03'0 0.0
2017-Mar-20 18:32N 40°40' W 074°03'0 0.1
2017-Mar-20 17:32N 40°39' W 074°03'0 0.0
2017-Mar-20 16:32N 40°39' W 074°03'0 0.0
2017-Mar-20 15:32N 40°39' W 074°03'0 0.0
2017-Mar-20 14:32N 40°39' W 074°03'0 0.0
2017-Mar-20 13:32N 40°39' W 074°03'0 0.0
2017-Mar-20 12:32N 40°39' W 074°03'0 0.0
2017-Mar-20 11:32N 40°39' W 074°03'0 0.0
2017-Mar-20 10:32N 40°39' W 074°03'0 0.0
2017-Mar-20 09:32N 40°39' W 074°03'0 0.1
2017-Mar-20 08:32N 40°39' W 074°03'0 0.2
2017-Mar-20 07:32N 40°40' W 074°03'0 0.0
2017-Mar-20 06:32N 40°40' W 074°03'0 0.0
2017-Mar-20 05:32N 40°40' W 074°03'0 0.2
2017-Mar-20 04:32N 40°39' W 074°03'0 0.0
2017-Mar-20 03:32N 40°39' W 074°03'0 0.0
2017-Mar-20 02:32N 40°39' W 074°03'0 0.0
2017-Mar-20 01:32N 40°39' W 074°03'0 0.0
2017-Mar-20 00:32N 40°39' W 074°03'0 0.0
2017-Mar-19 23:32N 40°39' W 074°03'0 0.0
2017-Mar-19 22:32N 40°39' W 074°03'0 0.0
2017-Mar-19 21:32N 40°39' W 074°03'0 0.0
2017-Mar-19 20:32N 40°39' W 074°03'0 0.0
2017-Mar-19 19:32N 40°39' W 074°03'0 0.1
2017-Mar-19 18:32N 40°40' W 074°03'0 0.0
2017-Mar-19 17:32N 40°40' W 074°03'0 0.1
2017-Mar-19 16:32N 40°39' W 074°03'0 0.0
2017-Mar-19 15:32N 40°39' W 074°03'0 0.0
2017-Mar-19 14:31N 40°39' W 074°03'0 0.0
2017-Mar-19 13:31N 40°39' W 074°03'0 0.0
2017-Mar-19 12:31N 40°39' W 074°03'0 0.0
2017-Mar-19 11:31N 40°39' W 074°03'0 0.0
2017-Mar-19 10:31N 40°39' W 074°03'0 0.0
2017-Mar-19 09:31N 40°39' W 074°03'0 0.0
2017-Mar-19 08:31N 40°39' W 074°03'0 0.0
2017-Mar-19 07:32N 40°39' W 074°03'0 0.2
2017-Mar-19 06:32N 40°40' W 074°03'0 0.1
2017-Mar-19 05:31N 40°40' W 074°03'0 0.2
2017-Mar-19 04:31N 40°40' W 074°03'0 0.0
2017-Mar-19 03:31N 40°40' W 074°03'0 0.0
2017-Mar-19 02:31N 40°39' W 074°03'0 0.0
2017-Mar-19 01:31N 40°39' W 074°03'0 0.0
2017-Mar-19 00:31N 40°39' W 074°03'0 0.0
2017-Mar-18 23:31N 40°39' W 074°03'0 0.0
2017-Mar-18 22:31N 40°39' W 074°03'0 0.0
2017-Mar-18 21:31N 40°39' W 074°03'0 0.0
2017-Mar-18 20:31N 40°39' W 074°03'0 0.0
2017-Mar-18 19:31N 40°39' W 074°03'0 0.1
2017-Mar-18 18:31N 40°40' W 074°03'0 0.1
2017-Mar-18 17:31N 40°40' W 074°03'0 0.1
2017-Mar-18 16:31N 40°40' W 074°03'0 0.1
2017-Mar-18 15:31N 40°40' W 074°03'0 0.0
2017-Mar-18 14:31N 40°40' W 074°03'0 0.1
2017-Mar-18 13:31N 40°39' W 074°03'0 0.0
2017-Mar-18 12:31N 40°39' W 074°03'0 0.0
2017-Mar-18 11:31N 40°39' W 074°03'0 0.0
2017-Mar-18 10:31N 40°39' W 074°03'0 0.0
2017-Mar-18 09:31N 40°39' W 074°03'0 0.0
2017-Mar-18 08:31N 40°40' W 074°03'0 0.2
2017-Mar-18 07:31N 40°40' W 074°03'0 0.0
2017-Mar-18 06:31N 40°40' W 074°03'0 0.0
2017-Mar-18 05:33N 40°40' W 074°03'1 0.6
2017-Mar-18 04:33N 40°39' W 074°03'1 0.8
2017-Mar-18 03:33N 40°40' W 074°02'2 2.2
2017-Mar-18 02:33N 40°39' W 074°05'  
Track history (hours):
 
Tides and Currents Weather Stations Pressure Air Temp Water Temp Dewpoint Dewpoint Depression Visibility Wind Speed Wind Dir Waves Ship Positions

Christian Reinauer

Owner: REINAUER TRANSPORTATION CO LLC, STATEN ISLAND, NY. More information available from US FCC via Universal Licensing System and Coast Guard Vessel Documentation Center.

Last reported at 2017-Mar-28 01:33 UTC. Time now 2017-Mar-28 02:17 UTC.
Position N 41°04' W 072°44'.

Length 170 m; draft 7.4 m.

Type: Tanker. MMSI: 366832740.

Date/timePositionNaut miles runAvg speedWind from/ knotsBaromVisibWave heightAir tempDewpointWater temp
2017-Mar-28 01:33N 41°04' W 072°44'5510.8
2017-Mar-27 20:31N 40°48' W 073°54'6 6.6
2017-Mar-27 19:33N 40°43' W 073°58'7 7.1
2017-Mar-27 18:34N 40°39' W 074°06'1 1.0
2017-Mar-27 17:33N 40°39' W 074°07'0 0.0
2017-Mar-27 16:33N 40°39' W 074°07'1 0.6
2017-Mar-27 15:33N 40°38' W 074°08'0 0.0
2017-Mar-27 14:33N 40°38' W 074°08'0 0.0
2017-Mar-27 13:33N 40°38' W 074°08'0 0.0
2017-Mar-27 12:33N 40°38' W 074°08'1 0.6
2017-Mar-27 11:33N 40°39' W 074°07'0 0.0
2017-Mar-27 10:33N 40°39' W 074°07'0 0.0
2017-Mar-27 09:33N 40°39' W 074°07'0 0.0
2017-Mar-27 08:33N 40°39' W 074°07'0 0.0
2017-Mar-27 07:33N 40°39' W 074°07'0 0.0
2017-Mar-27 06:33N 40°39' W 074°07'0 0.0
2017-Mar-27 05:33N 40°39' W 074°07'0 0.0
2017-Mar-27 04:33N 40°39' W 074°07'0 0.0
2017-Mar-27 03:33N 40°39' W 074°07'0 0.0
2017-Mar-27 02:33N 40°39' W 074°07'0 0.0
2017-Mar-27 01:33N 40°39' W 074°07'1 0.6
2017-Mar-27 00:33N 40°38' W 074°08'1 0.6
2017-Mar-26 23:33N 40°39' W 074°07'5 4.6
2017-Mar-26 22:33N 40°36' W 074°12'4 4.2
2017-Mar-26 21:32N 40°33' W 074°15'0 0.0
2017-Mar-26 20:33N 40°33' W 074°15'0 0.0
2017-Mar-26 19:33N 40°33' W 074°15'0 0.0
2017-Mar-26 18:30N 40°33' W 074°15'0 0.0
2017-Mar-26 17:33N 40°33' W 074°15'0 0.0
2017-Mar-26 16:33N 40°33' W 074°15'0 0.0
2017-Mar-26 15:33N 40°33' W 074°15'0 0.0
2017-Mar-26 14:33N 40°33' W 074°15'0 0.0
2017-Mar-26 13:32N 40°33' W 074°15'0 0.0
2017-Mar-26 02:12N 40°33' W 074°15'5 4.1
2017-Mar-26 01:06N 40°30' W 074°10'610.3
2017-Mar-26 00:33N 40°29' W 074°03'1010.5
2017-Mar-25 23:33N 40°40' W 074°03'0 0.1
2017-Mar-25 22:32N 40°40' W 074°03'0 0.2
2017-Mar-25 21:32N 40°40' W 074°03'0 0.1
2017-Mar-25 20:32N 40°40' W 074°03'0 0.0
2017-Mar-25 19:32N 40°40' W 074°03'0 0.0
2017-Mar-25 18:32N 40°40' W 074°03'0 0.0
2017-Mar-25 17:32N 40°40' W 074°03'0 0.0
2017-Mar-25 16:32N 40°40' W 074°03'0 0.0
2017-Mar-25 15:32N 40°40' W 074°03'0 0.0
2017-Mar-25 14:32N 40°40' W 074°03'0 0.1
2017-Mar-25 13:32N 40°40' W 074°03'0 0.1
2017-Mar-25 12:32N 40°40' W 074°03'0 0.0
2017-Mar-25 11:32N 40°40' W 074°03'0 0.0
2017-Mar-25 10:32N 40°40' W 074°03'0 0.1
2017-Mar-25 09:32N 40°40' W 074°03'0 0.1
2017-Mar-25 08:32N 40°40' W 074°03'0 0.1
2017-Mar-25 07:32N 40°40' W 074°03'0 0.0
2017-Mar-25 06:32N 40°40' W 074°03'0 0.0
2017-Mar-25 05:32N 40°40' W 074°03'0 0.0
2017-Mar-25 04:32N 40°40' W 074°03'0 0.0
2017-Mar-25 03:32N 40°40' W 074°03'0 0.0
2017-Mar-25 02:32N 40°40' W 074°03'0 0.0
2017-Mar-25 01:32N 40°40' W 074°03'0 0.2
2017-Mar-25 00:32N 40°40' W 074°03'0 0.0
2017-Mar-24 23:31N 40°40' W 074°03'0 0.0
2017-Mar-24 22:31N 40°40' W 074°03'4 4.1
2017-Mar-24 21:32N 40°38' W 074°08'0 0.0
2017-Mar-24 20:32N 40°38' W 074°08'0 0.0
2017-Mar-24 19:32N 40°38' W 074°08'0 0.0
2017-Mar-24 18:29N 40°38' W 074°08'0 0.0
2017-Mar-24 17:33N 40°38' W 074°08'0 0.0
2017-Mar-24 16:33N 40°38' W 074°08'0 0.0
2017-Mar-24 15:33N 40°38' W 074°08'0 0.0
2017-Mar-24 14:33N 40°38' W 074°08'4 3.9
2017-Mar-24 13:33N 40°40' W 074°03'2 1.6
2017-Mar-24 12:33N 40°38' W 074°03'5 5.1
2017-Mar-24 11:33N 40°42' W 073°59'8 8.3
2017-Mar-24 10:33N 40°48' W 073°51'1010.0
2017-Mar-24 09:33N 40°54' W 073°41'4611.5
2017-Mar-24 05:33N 41°07' W 072°42'1110.6
2017-Mar-24 04:33N 41°09' W 072°28'10 9.8
2017-Mar-24 03:33N 41°12' W 072°16'1010.1
2017-Mar-24 02:33N 41°14' W 072°03'4110.2
2017-Mar-23 22:33N 41°37' W 071°18'1110.9
2017-Mar-23 21:32N 41°48' W 071°23'1 0.5
2017-Mar-23 20:33N 41°48' W 071°24'0 0.0
2017-Mar-23 03:19N 41°48' W 071°24'0 0.6
2017-Mar-23 02:30N 41°48' W 071°23'6 6.6
2017-Mar-23 01:33N 41°42' W 071°20'138 9.8
2017-Mar-22 11:33N 40°29' W 073°55'1110.6
2017-Mar-22 10:33N 40°37' W 074°03'3 3.2
2017-Mar-22 09:33N 40°39' W 074°07'0 0.0
2017-Mar-22 08:31N 40°39' W 074°07'0 0.0
2017-Mar-22 07:31N 40°39' W 074°07'0 0.0
2017-Mar-22 06:31N 40°39' W 074°07'0 0.0
2017-Mar-22 05:31N 40°39' W 074°07'0 0.0
2017-Mar-22 04:31N 40°39' W 074°07'0 0.0
2017-Mar-22 03:31N 40°39' W 074°07'0 0.0
2017-Mar-22 02:28N 40°39' W 074°07'0 0.0
2017-Mar-22 01:31N 40°39' W 074°07'0 0.0
2017-Mar-22 00:31N 40°39' W 074°07'0 0.0
2017-Mar-21 23:28N 40°39' W 074°07'0 0.0
2017-Mar-21 22:31N 40°39' W 074°07'0 0.0
2017-Mar-21 21:34N 40°39' W 074°07'0 0.0
2017-Mar-21 20:34N 40°39' W 074°07'0 0.0
2017-Mar-21 19:33N 40°39' W 074°07'0 0.0
2017-Mar-21 18:33N 40°39' W 074°07'0 0.0
2017-Mar-21 17:33N 40°39' W 074°07'0 0.0
2017-Mar-21 16:33N 40°39' W 074°07'0 0.0
2017-Mar-21 15:33N 40°39' W 074°07'1 0.6
2017-Mar-21 14:33N 40°38' W 074°08'0 0.0
2017-Mar-21 13:33N 40°38' W 074°08'0 0.0
2017-Mar-21 12:33N 40°38' W 074°08'1 0.6
2017-Mar-21 11:31N 40°39' W 074°07'0 0.0
2017-Mar-21 10:31N 40°39' W 074°07'0 0.0
2017-Mar-21 09:31N 40°39' W 074°07'0 0.0
2017-Mar-21 08:31N 40°39' W 074°07'0 0.0
2017-Mar-21 07:31N 40°39' W 074°07'0 0.0
2017-Mar-21 06:31N 40°39' W 074°07'0 0.0
2017-Mar-21 05:31N 40°39' W 074°07'0 0.0
2017-Mar-21 04:31N 40°39' W 074°07'0 0.0
2017-Mar-21 03:31N 40°39' W 074°07'0 0.0
2017-Mar-21 02:31N 40°39' W 074°07'0 0.0
2017-Mar-21 01:32N 40°39' W 074°07'0 0.1
2017-Mar-21 00:33N 40°39' W 074°07'0 0.1
2017-Mar-20 23:32N 40°39' W 074°07'1 0.6
2017-Mar-20 22:33N 40°39' W 074°06'3 2.8
2017-Mar-20 21:32N 40°39' W 074°03'0 0.2
2017-Mar-20 20:32N 40°40' W 074°03'0 0.1
2017-Mar-20 19:32N 40°40' W 074°03'0 0.0
2017-Mar-20 18:32N 40°40' W 074°03'0 0.1
2017-Mar-20 17:32N 40°39' W 074°03'0 0.0
2017-Mar-20 16:32N 40°39' W 074°03'0 0.0
2017-Mar-20 15:32N 40°39' W 074°03'0 0.0
2017-Mar-20 14:32N 40°39' W 074°03'0 0.0
2017-Mar-20 13:32N 40°39' W 074°03'0 0.0
2017-Mar-20 12:32N 40°39' W 074°03'0 0.0
2017-Mar-20 11:32N 40°39' W 074°03'0 0.0
2017-Mar-20 10:32N 40°39' W 074°03'0 0.0
2017-Mar-20 09:32N 40°39' W 074°03'0 0.1
2017-Mar-20 08:32N 40°39' W 074°03'0 0.2
2017-Mar-20 07:32N 40°40' W 074°03'0 0.0
2017-Mar-20 06:32N 40°40' W 074°03'0 0.0
2017-Mar-20 05:32N 40°40' W 074°03'0 0.2
2017-Mar-20 04:32N 40°39' W 074°03'0 0.0
2017-Mar-20 03:32N 40°39' W 074°03'0 0.0
2017-Mar-20 02:32N 40°39' W 074°03'0 0.0
2017-Mar-20 01:32N 40°39' W 074°03'0 0.0
2017-Mar-20 00:32N 40°39' W 074°03'0 0.0
2017-Mar-19 23:32N 40°39' W 074°03'0 0.0
2017-Mar-19 22:32N 40°39' W 074°03'0 0.0
2017-Mar-19 21:32N 40°39' W 074°03'0 0.0
2017-Mar-19 20:32N 40°39' W 074°03'0 0.0
2017-Mar-19 19:32N 40°39' W 074°03'0 0.1
2017-Mar-19 18:32N 40°40' W 074°03'0 0.0
2017-Mar-19 17:32N 40°40' W 074°03'0 0.1
2017-Mar-19 16:32N 40°39' W 074°03'0 0.0
2017-Mar-19 15:32N 40°39' W 074°03'0 0.0
2017-Mar-19 14:31N 40°39' W 074°03'0 0.0
2017-Mar-19 13:31N 40°39' W 074°03'0 0.0
2017-Mar-19 12:31N 40°39' W 074°03'0 0.0
2017-Mar-19 11:31N 40°39' W 074°03'0 0.0
2017-Mar-19 10:31N 40°39' W 074°03'0 0.0
2017-Mar-19 09:31N 40°39' W 074°03'0 0.0
2017-Mar-19 08:31N 40°39' W 074°03'0 0.0
2017-Mar-19 07:32N 40°39' W 074°03'0 0.2
2017-Mar-19 06:32N 40°40' W 074°03'0 0.1
2017-Mar-19 05:31N 40°40' W 074°03'0 0.2
2017-Mar-19 04:31N 40°40' W 074°03'0 0.0
2017-Mar-19 03:31N 40°40' W 074°03'0 0.0
2017-Mar-19 02:31N 40°39' W 074°03'0 0.0
2017-Mar-19 01:31N 40°39' W 074°03'0 0.0
2017-Mar-19 00:31N 40°39' W 074°03'0 0.0
2017-Mar-18 23:31N 40°39' W 074°03'0 0.0
2017-Mar-18 22:31N 40°39' W 074°03'0 0.0
2017-Mar-18 21:31N 40°39' W 074°03'0 0.0
2017-Mar-18 20:31N 40°39' W 074°03'0 0.0
2017-Mar-18 19:31N 40°39' W 074°03'0 0.1
2017-Mar-18 18:31N 40°40' W 074°03'0 0.1
2017-Mar-18 17:31N 40°40' W 074°03'0 0.1
2017-Mar-18 16:31N 40°40' W 074°03'0 0.1
2017-Mar-18 15:31N 40°40' W 074°03'0 0.0
2017-Mar-18 14:31N 40°40' W 074°03'0 0.1
2017-Mar-18 13:31N 40°39' W 074°03'0 0.0
2017-Mar-18 12:31N 40°39' W 074°03'0 0.0
2017-Mar-18 11:31N 40°39' W 074°03'0 0.0
2017-Mar-18 10:31N 40°39' W 074°03'0 0.0
2017-Mar-18 09:31N 40°39' W 074°03'0 0.0
2017-Mar-18 08:31N 40°40' W 074°03'0 0.2
2017-Mar-18 07:31N 40°40' W 074°03'0 0.0
2017-Mar-18 06:31N 40°40' W 074°03'0 0.0
2017-Mar-18 05:33N 40°40' W 074°03'1 0.6
2017-Mar-18 04:33N 40°39' W 074°03'1 0.8
2017-Mar-18 03:33N 40°40' W 074°02'2 2.2
2017-Mar-18 02:33N 40°39' W 074°05'  

Dump ship's entire track history